Airfield :
LOGIN :

Register | Disclaimer

   EN    FR    IT 

 










Legend :    VFR   Marginal VFR   IFR   Intensive IFR   Very Intensive IFR
Visi :
Ceiling :
>= 8 km
>= 3000ft
5 to 8 km
1000 to 3000 ft
1500m to 5 km
500 to 1000 ft
800 to 1500m
200 to 500 ft
< 800m
< 200 ft
Symbols :   Thunderstorms  Fog  Heavy snow  Heavy precipitations  Wind > 20 kt
SIGMETs :     Misc.  Thunderstorms  Icing  Turbulence  Mountain Waves  Volcanic Ashes







- Airport Elevation : 776 ft
- IATA code : RMS


ETAR - Ramstein Air Base

CURRENT METAR :
  • 211656Z AUTO 01010KT 9999 VCTS SCT046 23/17 A2989 RMK AO2 SLP117 T02310166 $

EXPIRED METARs :
  • 211556Z AUTO 27009KT 9999 FEW036 25/16 A2990 RMK AO2 SLP119 T02490158 $
  • 211456Z AUTO 26007KT 9999 FEW120 SCT190 SCT210 24/17 A2989 RMK AO2 SLP116 T02430168 56005 $

TAF AMD TAF ETAR
Valid from the 21 at 16:00 until the 22 at 16:00 UTC


211559Z 2116/2216 24009KT 8000 -SHRA BKN030 QNH2987INS
TEMPO 2116/2118 VRB10G20KT 6000 -TSRA BKN030CB
BECMG 2117/2118 16006KT 8000 BR BKN040 QNH2989INS
BECMG 2203/2204 VRB03KT 3200 BR BKN040 QNH2991INS
BECMG 2206/2207 VRB06KT 9999 NSW BKN030 QNH2994INS
BECMG 2209/2210 VRB06KT 8000 -SHRA BKN040 QNH2993INS TX25/2214Z TN16/2204Z
No reported NOTAMs for that airfield.



MET'MAP, your aeronautical weather chart ! - Copyright ORBIFLY December 2007 - Disclaimer

ORBIFLY MET'MAP TEAM :

Programming & Development : Alexandra Zaïnal
Concept & Development : Baudouin d'Aumeries
Co-Development & Prog : Marc-Olivier Méhu
Technical & hardware support : Manuel Goepfert

Contact : metmap@orbifly.com




SOURCES & CREDITS :

   NOAA